createdAt,value
2023-02-03T00:00:52.357Z,6.43
2023-02-03T00:03:19.785Z,6.36
2023-02-03T00:05:47.579Z,6.45
2023-02-03T00:08:15.708Z,6.46
2023-02-03T00:10:43.218Z,6.48
2023-02-03T00:13:10.663Z,6.55
2023-02-03T00:15:39.408Z,6.55
2023-02-03T00:18:06.846Z,6.68
2023-02-03T00:20:34.369Z,6.67
2023-02-03T00:23:06.123Z,6.69
2023-02-03T00:25:34.020Z,6.78
2023-02-03T00:28:01.566Z,6.78
2023-02-03T00:30:29.124Z,6.96
2023-02-03T00:32:58.030Z,6.88
2023-02-03T00:35:25.410Z,6.96
2023-02-03T00:37:53.749Z,6.78
2023-02-03T00:40:21.418Z,6.92
2023-02-03T00:42:48.832Z,6.82
2023-02-03T00:45:16.306Z,6.96
2023-02-03T00:47:44.218Z,7.04
2023-02-03T00:50:13.319Z,7.00
2023-02-03T00:52:40.761Z,7.12
2023-02-03T00:55:09.599Z,7.06
2023-02-03T00:57:38.326Z,7.15
2023-02-03T01:00:06.992Z,7.14
2023-02-03T01:02:34.590Z,7.26
2023-02-03T01:05:03.079Z,7.23
2023-02-03T01:07:33.872Z,7.23
2023-02-03T01:10:01.340Z,7.17
2023-02-03T01:12:30.583Z,7.23
2023-02-03T01:14:57.992Z,7.29
2023-02-03T01:17:25.502Z,7.37
2023-02-03T01:19:53.553Z,7.40
2023-02-03T01:22:21.059Z,7.37
2023-02-03T01:24:49.828Z,7.50
2023-02-03T01:27:17.283Z,7.51
2023-02-03T01:29:44.701Z,7.61
2023-02-03T01:32:12.202Z,7.64
2023-02-03T01:34:39.851Z,7.63
2023-02-03T01:37:07.668Z,7.76
2023-02-03T01:39:35.275Z,7.74
2023-02-03T01:42:04.574Z,7.78
2023-02-03T01:44:58.587Z,7.84
2023-02-03T01:47:30.023Z,7.88
2023-02-03T01:50:02.387Z,7.87
2023-02-03T01:52:30.387Z,7.89
2023-02-03T01:55:00.025Z,7.93
2023-02-03T01:57:34.144Z,7.95
2023-02-03T02:00:02.203Z,7.97
2023-02-03T02:02:30.415Z,8.01
2023-02-03T02:05:01.387Z,8.05
2023-02-03T02:07:29.059Z,8.05
2023-02-03T02:09:57.803Z,8.06
2023-02-03T02:12:25.458Z,8.10
2023-02-03T02:14:54.589Z,8.06
2023-02-03T02:17:32.816Z,8.10
2023-02-03T02:20:34.741Z,8.13
2023-02-03T02:23:18.629Z,8.14
2023-02-03T02:25:58.508Z,8.16
2023-02-03T02:28:50.124Z,8.15
2023-02-03T02:31:51.773Z,8.25
2023-02-03T02:34:25.762Z,8.23
2023-02-03T02:37:01.056Z,8.19
2023-02-03T02:39:36.684Z,8.24
2023-02-03T02:42:08.534Z,8.28
2023-02-03T02:44:38.815Z,8.31
2023-02-03T02:47:13.839Z,8.32
2023-02-03T02:49:45.353Z,8.34
2023-02-03T02:52:15.658Z,8.24
2023-02-03T02:54:46.793Z,8.32
2023-02-03T02:57:15.307Z,8.25
2023-02-03T02:59:43.395Z,8.33
2023-02-03T03:02:12.842Z,8.34
2023-02-03T03:04:41.254Z,8.28
2023-02-03T03:07:11.398Z,8.34
2023-02-03T03:09:42.468Z,8.34
2023-02-03T03:12:13.547Z,8.36
2023-02-03T03:14:44.836Z,8.31
2023-02-03T03:17:18.729Z,8.32
2023-02-03T03:19:50.563Z,8.39
2023-02-03T03:22:18.746Z,8.38
2023-02-03T03:24:48.563Z,8.41
2023-02-03T03:27:19.126Z,8.40
2023-02-03T03:29:50.205Z,8.41
2023-02-03T03:32:19.012Z,8.44
2023-02-03T03:34:46.487Z,8.43
2023-02-03T03:37:17.065Z,8.49
2023-02-03T03:39:47.231Z,8.45
2023-02-03T03:42:20.081Z,8.46
2023-02-03T03:44:53.198Z,8.44
2023-02-03T03:47:26.583Z,8.42
2023-02-03T03:49:54.815Z,8.44
2023-02-03T03:52:24.527Z,8.45
2023-02-03T03:54:52.439Z,8.42
2023-02-03T03:57:22.957Z,8.46
2023-02-03T03:59:51.937Z,8.48
2023-02-03T04:02:22.570Z,8.47
2023-02-03T04:04:50.837Z,8.50
2023-02-03T04:07:19.911Z,8.47
2023-02-03T04:09:47.373Z,8.52
2023-02-03T04:12:20.012Z,8.51
2023-02-03T04:14:47.494Z,8.46
2023-02-03T04:17:15.050Z,8.43
2023-02-03T04:19:43.801Z,8.50
2023-02-03T04:22:11.223Z,8.54
2023-02-03T04:24:38.614Z,8.46
2023-02-03T04:27:06.115Z,8.52
2023-02-03T04:29:33.547Z,8.52
2023-02-03T04:32:01.062Z,8.51
2023-02-03T04:34:28.559Z,8.51
2023-02-03T04:36:57.440Z,8.52
2023-02-03T04:39:24.897Z,8.52
2023-02-03T04:41:52.462Z,8.51
2023-02-03T04:44:20.055Z,8.50
2023-02-03T04:46:47.563Z,8.47
2023-02-03T04:49:15.008Z,8.51
2023-02-03T04:51:44.026Z,8.50
2023-02-03T04:54:12.846Z,8.51
2023-02-03T04:56:40.234Z,8.49
2023-02-03T04:59:07.705Z,8.54
2023-02-03T05:01:35.116Z,8.57
2023-02-03T05:04:02.662Z,8.58
2023-02-03T05:06:31.960Z,8.52
2023-02-03T05:08:59.485Z,8.53
2023-02-03T05:11:28.886Z,8.54
2023-02-03T05:13:56.448Z,8.55
2023-02-03T05:16:24.140Z,8.60
2023-02-03T05:18:53.961Z,8.55
2023-02-03T05:24:35.261Z,8.50
2023-02-03T05:27:04.310Z,8.54
2023-02-03T05:29:32.292Z,8.52
2023-02-03T05:34:56.178Z,8.51
2023-02-03T05:45:03.264Z,8.50
2023-02-03T05:47:30.859Z,8.51
2023-02-03T05:49:58.580Z,8.51
2023-02-03T05:52:26.192Z,8.52
2023-02-03T05:57:38.578Z,8.46
2023-02-03T06:00:34.974Z,8.58
2023-02-03T06:03:08.504Z,8.48
2023-02-03T06:05:40.739Z,8.50
2023-02-03T06:08:08.651Z,8.50
2023-02-03T06:10:36.423Z,8.53
2023-02-03T06:13:10.151Z,8.48
2023-02-03T06:15:39.036Z,8.57
2023-02-03T06:18:07.569Z,8.59
2023-02-03T06:20:35.331Z,8.54
2023-02-03T06:23:03.998Z,8.57
2023-02-03T06:25:32.816Z,8.52
2023-02-03T06:30:46.544Z,8.63
2023-02-03T06:33:14.081Z,8.63
2023-02-03T06:35:41.658Z,8.65
2023-02-03T06:38:09.128Z,8.71
2023-02-03T06:40:37.654Z,8.68
2023-02-03T06:43:05.154Z,8.64
2023-02-03T06:45:32.689Z,8.66
2023-02-03T06:48:01.558Z,8.66
2023-02-03T06:50:29.514Z,8.66
2023-02-03T06:52:57.366Z,8.66
2023-02-03T06:55:24.847Z,8.67
2023-02-03T06:57:52.892Z,8.67
2023-02-03T07:00:21.364Z,8.71
2023-02-03T07:02:54.509Z,8.73
2023-02-03T07:05:23.670Z,8.63
2023-02-03T07:07:51.232Z,8.68
2023-02-03T07:10:18.699Z,8.68
2023-02-03T07:12:46.392Z,8.63
2023-02-03T07:15:14.358Z,8.66
2023-02-03T07:17:41.845Z,8.71
2023-02-03T07:20:10.115Z,8.76
2023-02-03T07:22:40.717Z,8.71
2023-02-03T07:25:08.492Z,8.69
2023-02-03T07:27:35.942Z,8.81
2023-02-03T07:30:04.644Z,8.73
2023-02-03T07:32:32.957Z,8.73
2023-02-03T07:35:05.009Z,8.80
2023-02-03T07:37:32.496Z,8.81
2023-02-03T07:40:04.210Z,8.78
2023-02-03T07:42:31.736Z,8.81
2023-02-03T07:44:59.178Z,8.88
2023-02-03T07:47:26.617Z,8.87
2023-02-03T07:49:54.123Z,8.84
2023-02-03T07:52:22.113Z,8.91
2023-02-03T07:54:49.548Z,8.92
2023-02-03T07:57:18.282Z,8.95
2023-02-03T07:59:45.717Z,8.90
2023-02-03T08:02:13.126Z,8.90
2023-02-03T08:04:40.632Z,8.94
2023-02-03T08:07:08.138Z,8.98
2023-02-03T08:09:35.608Z,8.94
2023-02-03T08:12:03.337Z,8.99
2023-02-03T08:14:32.318Z,9.00
2023-02-03T08:16:59.763Z,9.01
2023-02-03T08:19:27.451Z,9.04
2023-02-03T08:21:54.897Z,9.04
2023-02-03T08:24:22.404Z,9.08
2023-02-03T08:26:50.035Z,9.01
2023-02-03T08:29:17.682Z,9.03
2023-02-03T08:31:46.585Z,9.04
2023-02-03T08:34:14.149Z,9.13
2023-02-03T08:36:42.973Z,9.07
2023-02-03T08:39:10.457Z,9.03
2023-02-03T08:41:38.062Z,9.07
2023-02-03T08:44:05.446Z,9.17
2023-02-03T08:46:33.125Z,9.12
2023-02-03T08:49:03.607Z,9.12
2023-02-03T08:51:31.264Z,9.01
2023-02-03T08:53:58.681Z,8.70
2023-02-03T08:56:27.434Z,8.69
2023-02-03T08:58:56.109Z,8.66
2023-02-03T09:01:23.715Z,8.62
2023-02-03T09:03:51.228Z,8.43
2023-02-03T09:06:22.751Z,8.62
2023-02-03T09:08:51.177Z,8.58
2023-02-03T09:11:19.779Z,8.51
2023-02-03T09:13:48.649Z,8.57
2023-02-03T09:16:18.076Z,8.52
2023-02-03T09:18:46.171Z,8.58
2023-02-03T09:21:23.878Z,8.60
2023-02-03T09:24:03.010Z,8.66
2023-02-03T09:26:30.429Z,8.56
2023-02-03T09:28:57.901Z,8.54
2023-02-03T09:31:25.339Z,8.50
2023-02-03T09:33:52.779Z,8.44
2023-02-03T09:36:20.241Z,8.44
2023-02-03T09:38:47.671Z,8.59
2023-02-03T09:41:22.783Z,8.52
2023-02-03T09:43:53.195Z,8.47
2023-02-03T09:46:22.804Z,8.52
2023-02-03T09:48:52.939Z,8.45
2023-02-03T09:51:22.425Z,8.49
2023-02-03T09:53:52.553Z,8.61
2023-02-03T09:56:27.187Z,8.60
2023-02-03T09:58:54.681Z,8.60
2023-02-03T10:01:23.058Z,8.64
2023-02-03T10:03:54.500Z,8.67
2023-02-03T10:06:28.038Z,8.64
2023-02-03T10:09:04.989Z,8.59
2023-02-03T10:11:44.364Z,8.49
2023-02-03T10:14:21.559Z,8.55
2023-02-03T10:16:59.412Z,8.53
2023-02-03T10:19:28.601Z,8.49
2023-02-03T10:21:59.438Z,8.46
2023-02-03T10:24:29.786Z,8.48
2023-02-03T10:26:58.595Z,8.40
2023-02-03T10:29:32.917Z,8.52
2023-02-03T10:32:00.756Z,8.65
2023-02-03T10:34:28.299Z,8.54
2023-02-03T10:36:57.549Z,8.51
2023-02-03T10:39:30.951Z,8.50
2023-02-03T10:41:59.938Z,8.65
2023-02-03T10:44:33.228Z,8.66
2023-02-03T10:47:00.684Z,8.67
2023-02-03T10:49:29.516Z,8.53
2023-02-03T10:52:03.665Z,8.60
2023-02-03T10:54:32.910Z,8.63
2023-02-03T10:57:06.589Z,8.61
2023-02-03T10:59:36.502Z,8.74
2023-02-03T11:02:10.583Z,8.57
2023-02-03T11:04:38.368Z,8.55
2023-02-03T11:07:08.306Z,8.54
2023-02-03T11:09:38.202Z,8.51
2023-02-03T11:12:14.459Z,8.65
2023-02-03T11:14:44.277Z,8.63
2023-02-03T11:17:17.270Z,8.72
2023-02-03T11:19:45.817Z,8.70
2023-02-03T11:22:14.347Z,8.65
2023-02-03T11:24:42.885Z,8.49
2023-02-03T11:27:14.721Z,8.75
2023-02-03T11:29:44.222Z,8.71
2023-02-03T11:32:18.292Z,8.83
2023-02-03T11:34:48.525Z,8.74
2023-02-03T11:37:28.437Z,8.75
2023-02-03T11:40:18.059Z,8.74
2023-02-03T11:43:00.490Z,8.92
2023-02-03T11:45:29.158Z,8.81
2023-02-03T11:47:58.712Z,8.73
2023-02-03T11:50:30.703Z,8.66
2023-02-03T11:53:07.596Z,8.71
2023-02-03T11:55:44.102Z,8.79
2023-02-03T11:58:28.962Z,8.79
2023-02-03T12:01:04.545Z,8.64
2023-02-03T12:03:45.271Z,8.73
2023-02-03T12:06:28.359Z,8.80
2023-02-03T12:09:05.865Z,8.74
2023-02-03T12:11:45.591Z,8.76
2023-02-03T12:14:25.573Z,8.94
2023-02-03T12:17:14.268Z,8.80
2023-02-03T12:19:55.577Z,8.65
2023-02-03T12:22:29.940Z,8.82
2023-02-03T12:25:01.624Z,8.84
2023-02-03T12:27:38.860Z,8.90
2023-02-03T12:30:11.908Z,9.00
2023-02-03T12:32:43.681Z,8.94
2023-02-03T12:35:14.994Z,8.90
2023-02-03T12:37:49.679Z,8.92
2023-02-03T12:40:20.099Z,8.88
2023-02-03T12:42:52.647Z,8.81
2023-02-03T12:45:23.823Z,8.80
2023-02-03T12:47:56.154Z,8.80
2023-02-03T12:50:30.670Z,8.83
2023-02-03T12:53:00.796Z,8.85
2023-02-03T12:55:33.704Z,9.02
2023-02-03T12:58:03.467Z,8.81
2023-02-03T13:00:37.771Z,8.78
2023-02-03T13:03:12.373Z,8.88
2023-02-03T13:05:43.609Z,8.88
2023-02-03T13:08:16.657Z,8.83
2023-02-03T13:10:48.575Z,8.87
2023-02-03T13:13:19.486Z,8.86
2023-02-03T13:15:52.456Z,8.82
2023-02-03T13:18:26.324Z,8.86
2023-02-03T13:20:54.141Z,8.91
2023-02-03T13:23:21.905Z,8.83
2023-02-03T13:26:16.661Z,8.92
2023-02-03T13:28:58.511Z,8.82
2023-02-03T13:31:36.620Z,8.84
2023-02-03T13:34:16.486Z,8.88
2023-02-03T13:37:00.852Z,8.93
2023-02-03T13:39:37.377Z,8.88
2023-02-03T13:42:22.077Z,8.87
2023-02-03T13:44:51.608Z,8.82
2023-02-03T13:47:24.141Z,8.88
2023-02-03T13:49:54.334Z,8.89
2023-02-03T13:52:27.145Z,8.91
2023-02-03T13:54:54.818Z,8.98
2023-02-03T13:57:24.139Z,8.79
2023-02-03T13:59:51.582Z,8.89
2023-02-03T14:02:43.285Z,8.73
2023-02-03T14:05:44.724Z,8.79
2023-02-03T14:08:48.842Z,8.90
2023-02-03T14:11:46.013Z,8.96
2023-02-03T14:14:41.854Z,8.90
2023-02-03T14:18:02.819Z,8.81
2023-02-03T14:20:52.400Z,8.73
2023-02-03T14:23:24.261Z,8.72
2023-02-03T14:25:53.801Z,8.72
2023-02-03T14:28:23.555Z,8.66
2023-02-03T14:31:06.108Z,8.70
2023-02-03T14:34:13.065Z,8.81
2023-02-03T14:36:45.571Z,8.70
2023-02-03T14:40:01.435Z,8.78
2023-02-03T14:42:46.787Z,8.73
2023-02-03T14:45:24.613Z,8.82
2023-02-03T14:48:02.905Z,8.83
2023-02-03T14:50:39.411Z,8.69
2023-02-03T14:53:22.094Z,8.77
2023-02-03T14:55:55.113Z,8.70
2023-02-03T14:58:27.535Z,8.66
2023-02-03T15:00:55.405Z,8.77
2023-02-03T15:03:25.474Z,8.71
2023-02-03T15:05:55.741Z,8.82
2023-02-03T15:08:53.036Z,8.81
2023-02-03T15:11:32.973Z,8.72
2023-02-03T15:14:19.977Z,8.72
2023-02-03T15:16:49.492Z,8.81
2023-02-03T15:19:18.977Z,8.84
2023-02-03T15:21:46.618Z,8.70
2023-02-03T15:24:18.600Z,8.69
2023-02-03T15:26:47.191Z,8.66
2023-02-03T15:29:23.046Z,8.70
2023-02-03T15:31:53.365Z,8.85
2023-02-03T15:34:26.169Z,8.73
2023-02-03T15:36:55.900Z,8.64
2023-02-03T15:39:38.753Z,8.69
2023-02-03T15:42:09.684Z,8.76
2023-02-03T15:44:42.062Z,8.66
2023-02-03T15:47:21.499Z,8.68
2023-02-03T15:49:55.754Z,8.77
2023-02-03T15:52:24.735Z,8.71
2023-02-03T15:54:59.477Z,8.71
2023-02-03T15:57:29.773Z,8.68
2023-02-03T15:59:59.702Z,8.69
2023-02-03T16:02:29.685Z,8.77
2023-02-03T16:04:57.616Z,8.77
2023-02-03T16:07:27.283Z,8.68
2023-02-03T16:09:57.104Z,8.73
2023-02-03T16:12:25.636Z,8.61
2023-02-03T16:14:53.810Z,8.64
2023-02-03T16:17:24.960Z,8.55
2023-02-03T16:19:52.995Z,8.57
2023-02-03T16:22:30.349Z,8.63
2023-02-03T16:25:14.174Z,8.73
2023-02-03T16:27:41.745Z,8.62
2023-02-03T16:30:42.162Z,8.71
2023-02-03T16:33:36.662Z,8.61
2023-02-03T16:36:29.548Z,8.73
2023-02-03T16:39:15.095Z,8.65
2023-02-03T16:42:01.721Z,8.71
2023-02-03T16:44:46.809Z,8.78
2023-02-03T16:47:40.673Z,8.68
2023-02-03T16:50:37.848Z,8.73
2023-02-03T16:53:07.049Z,8.48
2023-02-03T16:55:34.522Z,8.67
2023-02-03T16:58:03.455Z,8.49
2023-02-03T17:00:30.846Z,8.67
2023-02-03T17:02:58.757Z,8.64
2023-02-03T17:05:26.262Z,8.67
2023-02-03T17:07:53.803Z,8.73
2023-02-03T17:10:21.348Z,8.75
2023-02-03T17:12:48.738Z,8.61
2023-02-03T17:15:17.591Z,8.48
2023-02-03T17:17:46.010Z,8.54
2023-02-03T17:20:13.523Z,8.55
2023-02-03T17:22:40.986Z,8.53
2023-02-03T17:25:09.866Z,8.59
2023-02-03T17:27:37.498Z,8.54
2023-02-03T17:30:05.761Z,8.46
2023-02-03T17:32:34.761Z,8.57
2023-02-03T17:35:02.222Z,8.49
2023-02-03T17:37:29.743Z,8.44
2023-02-03T17:53:57.126Z,8.43
2023-02-03T17:56:26.056Z,8.49
2023-02-03T17:58:56.372Z,8.36
2023-02-03T18:01:25.320Z,8.34
2023-02-03T18:03:56.556Z,8.40
2023-02-03T18:06:25.552Z,8.28
2023-02-03T18:08:53.542Z,8.28
2023-02-03T18:11:21.895Z,8.40
2023-02-03T18:13:50.417Z,8.33
2023-02-03T18:16:22.199Z,8.43
2023-02-03T18:18:51.246Z,8.42
2023-02-03T18:21:22.248Z,8.24
2023-02-03T18:23:51.081Z,8.33
2023-02-03T18:26:20.185Z,8.37
2023-02-03T18:28:47.702Z,8.22
2023-02-03T18:31:17.519Z,8.25
2023-02-03T18:33:46.140Z,8.27
2023-02-03T18:36:14.150Z,8.20
2023-02-03T18:38:44.366Z,8.32
2023-02-03T18:41:14.842Z,8.24
2023-02-03T18:43:42.359Z,8.44
2023-02-03T18:46:10.800Z,8.31
2023-02-03T18:48:38.606Z,8.31
2023-02-03T18:51:09.327Z,8.42
2023-02-03T18:53:38.192Z,8.27
2023-02-03T18:56:08.841Z,8.36
2023-02-03T18:58:38.516Z,8.26
2023-02-03T19:01:06.405Z,8.26
2023-02-03T19:03:34.387Z,8.23
2023-02-03T19:06:03.521Z,8.30
2023-02-03T19:08:31.000Z,8.27
2023-02-03T19:10:58.444Z,8.21
2023-02-03T19:13:27.410Z,8.23
2023-02-03T19:15:54.805Z,8.19
2023-02-03T19:18:22.225Z,8.15
2023-02-03T19:20:49.674Z,8.22
2023-02-03T19:23:17.047Z,8.18
2023-02-03T19:25:44.511Z,8.20
2023-02-03T19:28:20.074Z,8.27
2023-02-03T19:30:57.493Z,8.22
2023-02-03T19:33:27.348Z,8.20
2023-02-03T19:35:54.755Z,8.24
2023-02-03T19:38:22.175Z,8.28
2023-02-03T19:40:49.567Z,8.14
2023-02-03T19:43:17.111Z,8.18
2023-02-03T19:45:44.527Z,8.17
2023-02-03T19:48:13.428Z,8.17
2023-02-03T19:50:45.738Z,8.15
2023-02-03T19:53:13.659Z,8.16
2023-02-03T19:55:42.858Z,8.09
2023-02-03T19:58:10.424Z,8.19
2023-02-03T20:00:37.926Z,8.12
2023-02-03T20:03:05.737Z,8.00
2023-02-03T20:05:34.736Z,7.96
2023-02-03T20:08:02.109Z,8.00
2023-02-03T20:10:29.917Z,7.99
2023-02-03T20:12:58.695Z,8.06
2023-02-03T20:15:26.898Z,8.05
2023-02-03T20:17:54.491Z,8.07
2023-02-03T20:20:22.184Z,8.24
2023-02-03T20:22:51.122Z,8.11
2023-02-03T20:25:19.234Z,8.12
2023-02-03T20:27:46.834Z,8.03
2023-02-03T20:30:14.766Z,8.24
2023-02-03T20:32:42.448Z,8.21
2023-02-03T20:35:10.148Z,8.06
2023-02-03T20:37:37.642Z,8.15
2023-02-03T20:40:11.247Z,8.14
2023-02-03T20:42:38.624Z,8.07
2023-02-03T20:45:10.685Z,8.31
2023-02-03T20:47:38.116Z,8.22
2023-02-03T20:50:07.650Z,8.17
2023-02-03T20:52:35.052Z,8.30
2023-02-03T20:55:03.126Z,8.12
2023-02-03T20:57:31.999Z,8.06
2023-02-03T20:59:59.498Z,7.85
2023-02-03T21:02:33.996Z,8.00
2023-02-03T21:05:04.614Z,8.05
2023-02-03T21:07:32.074Z,7.86
2023-02-03T21:10:00.319Z,7.97
2023-02-03T21:12:28.452Z,7.85
2023-02-03T21:14:57.718Z,7.78
2023-02-03T21:17:26.847Z,7.75
2023-02-03T21:19:55.404Z,7.38
2023-02-03T21:22:24.497Z,7.58
2023-02-03T21:24:53.818Z,7.57
2023-02-03T21:27:28.584Z,7.33
2023-02-03T21:29:57.924Z,7.37
2023-02-03T21:32:27.117Z,7.38
2023-02-03T21:34:54.796Z,7.48
2023-02-03T21:37:38.743Z,7.46
2023-02-03T21:40:18.970Z,7.16
2023-02-03T21:42:47.378Z,7.25
2023-02-03T21:45:37.861Z,7.07
2023-02-03T21:48:24.986Z,7.02
2023-02-03T21:50:52.454Z,7.03
2023-02-03T21:53:25.468Z,6.84
2023-02-03T21:55:52.943Z,6.95
2023-02-03T21:58:24.131Z,6.90
2023-02-03T22:00:53.850Z,7.11
2023-02-03T22:03:26.174Z,6.88
2023-02-03T22:05:56.939Z,7.14
2023-02-03T22:08:24.847Z,7.02
2023-02-03T22:10:52.243Z,6.82
2023-02-03T22:13:20.182Z,6.92
2023-02-03T22:15:48.835Z,6.89
2023-02-03T22:18:17.716Z,7.08
2023-02-03T22:20:45.186Z,7.34
2023-02-03T22:23:12.664Z,7.06
2023-02-03T22:25:40.216Z,7.10
2023-02-03T22:28:07.715Z,7.27
2023-02-03T22:30:35.378Z,6.89
2023-02-03T22:33:03.062Z,7.19
2023-02-03T22:35:32.047Z,7.39
2023-02-03T22:37:59.695Z,7.13
2023-02-03T22:40:27.366Z,7.47
2023-02-03T22:42:54.966Z,7.14
2023-02-03T22:45:22.782Z,7.31
2023-02-03T22:47:50.290Z,7.13
2023-02-03T22:50:24.579Z,7.09
2023-02-03T22:52:59.858Z,7.21
2023-02-03T22:55:27.472Z,7.09
2023-02-03T22:57:54.983Z,6.85
2023-02-03T23:00:24.479Z,7.11
2023-02-03T23:02:52.629Z,6.76
2023-02-03T23:05:20.441Z,6.90
2023-02-03T23:07:48.135Z,6.85
2023-02-03T23:10:19.384Z,6.78
2023-02-03T23:12:47.083Z,6.78
2023-02-03T23:15:15.262Z,6.70
2023-02-03T23:17:42.828Z,6.86
2023-02-03T23:20:12.292Z,6.84
2023-02-03T23:22:39.878Z,6.93
2023-02-03T23:25:07.952Z,6.96
2023-02-03T23:27:36.750Z,6.92
2023-02-03T23:30:05.022Z,6.65
2023-02-03T23:32:33.665Z,7.19
2023-02-03T23:35:18.937Z,7.18
2023-02-03T23:37:46.770Z,7.14
2023-02-03T23:40:14.351Z,6.82
2023-02-03T23:42:43.289Z,7.10
2023-02-03T23:45:12.669Z,7.09
